createdAt,value
2017-12-30T00:00:59.548Z,5.8
2017-12-30T00:02:00.928Z,5.8
2017-12-30T00:03:02.311Z,5.8
2017-12-30T00:04:03.691Z,5.8
2017-12-30T00:05:05.072Z,5.7
2017-12-30T00:06:06.454Z,5.9
2017-12-30T00:07:07.837Z,5.8
2017-12-30T00:08:09.220Z,5.8
2017-12-30T00:09:10.614Z,5.7
2017-12-30T00:10:11.993Z,5.7
2017-12-30T00:11:13.375Z,5.6
2017-12-30T00:12:14.754Z,5.7
2017-12-30T00:13:16.134Z,5.7
2017-12-30T00:14:17.516Z,5.7
2017-12-30T00:15:18.898Z,5.7
2017-12-30T00:16:20.281Z,5.8
2017-12-30T00:17:21.665Z,5.7
2017-12-30T00:18:23.045Z,5.7
2017-12-30T00:19:24.421Z,5.7
2017-12-30T00:20:25.799Z,5.7
2017-12-30T00:21:27.179Z,5.7
2017-12-30T00:22:28.565Z,5.6
2017-12-30T00:23:29.941Z,5.6
2017-12-30T00:24:31.324Z,5.7
2017-12-30T00:25:32.706Z,5.6
2017-12-30T00:26:34.085Z,5.7
2017-12-30T00:27:35.466Z,5.7
2017-12-30T00:28:36.845Z,5.7
2017-12-30T00:29:38.346Z,5.6
2017-12-30T00:30:39.717Z,5.7
2017-12-30T00:31:41.109Z,5.6
2017-12-30T00:32:42.484Z,5.6
2017-12-30T00:33:43.861Z,5.6
2017-12-30T00:34:45.241Z,5.6
2017-12-30T00:35:46.619Z,5.6
2017-12-30T00:36:48.004Z,5.6
2017-12-30T00:37:49.383Z,5.5
2017-12-30T00:38:50.766Z,5.5
2017-12-30T00:39:52.146Z,5.6
2017-12-30T00:40:53.543Z,5.6
2017-12-30T00:41:54.904Z,5.5
2017-12-30T00:42:56.289Z,5.6
2017-12-30T00:43:57.673Z,5.4
2017-12-30T00:44:59.085Z,5.5
2017-12-30T00:46:00.473Z,5.6
2017-12-30T00:47:01.849Z,5.5
2017-12-30T00:48:03.230Z,5.5
2017-12-30T00:49:04.611Z,5.6
2017-12-30T00:50:05.992Z,5.5
2017-12-30T00:51:07.374Z,5.5
2017-12-30T00:52:08.760Z,5.5
2017-12-30T00:53:10.142Z,5.5
2017-12-30T00:54:11.522Z,5.5
2017-12-30T00:55:12.900Z,5.5
2017-12-30T00:56:14.281Z,5.5
2017-12-30T00:57:15.661Z,5.4
2017-12-30T00:58:17.046Z,5.6
2017-12-30T00:59:18.425Z,5.5
2017-12-30T01:00:19.809Z,5.5
2017-12-30T01:01:21.187Z,5.5
2017-12-30T01:02:22.570Z,5.5
2017-12-30T01:03:23.950Z,5.6
2017-12-30T01:04:25.333Z,5.6
2017-12-30T01:05:26.710Z,5.5
2017-12-30T01:06:28.092Z,5.5
2017-12-30T01:07:29.477Z,5.6
2017-12-30T01:08:30.855Z,5.6
2017-12-30T01:09:32.234Z,5.6
2017-12-30T01:10:33.613Z,5.5
2017-12-30T01:11:34.993Z,5.6
2017-12-30T01:12:36.376Z,5.6
2017-12-30T01:13:37.757Z,5.6
2017-12-30T01:14:39.142Z,5.6
2017-12-30T01:15:40.519Z,5.6
2017-12-30T01:16:41.900Z,5.7
2017-12-30T01:17:43.279Z,5.5
2017-12-30T01:18:44.656Z,5.6
2017-12-30T01:19:46.040Z,5.5
2017-12-30T01:20:47.421Z,5.6
2017-12-30T01:21:48.809Z,5.7
2017-12-30T01:22:50.184Z,5.6
2017-12-30T01:23:51.563Z,5.6
2017-12-30T01:24:52.942Z,5.7
2017-12-30T01:25:54.326Z,5.7
2017-12-30T01:26:55.705Z,5.7
2017-12-30T01:27:57.086Z,5.7
2017-12-30T01:28:58.468Z,5.7
2017-12-30T01:29:59.845Z,5.7
2017-12-30T01:31:01.228Z,5.7
2017-12-30T01:32:02.608Z,5.6
2017-12-30T01:33:03.989Z,5.7
2017-12-30T01:34:05.371Z,5.6
2017-12-30T01:35:06.752Z,5.6
2017-12-30T01:36:08.135Z,5.6
2017-12-30T01:37:09.528Z,5.7
2017-12-30T01:38:10.936Z,5.7
2017-12-30T01:39:12.327Z,5.7
2017-12-30T01:40:13.710Z,5.7
2017-12-30T01:41:15.092Z,5.6
2017-12-30T01:42:16.475Z,5.7
2017-12-30T01:43:17.856Z,5.6
2017-12-30T01:44:19.237Z,5.6
2017-12-30T01:45:20.618Z,5.6
2017-12-30T01:46:22.001Z,5.6
2017-12-30T01:47:23.381Z,5.5
2017-12-30T01:48:24.763Z,5.6
2017-12-30T01:49:26.144Z,5.6
2017-12-30T01:50:27.528Z,5.6
2017-12-30T01:51:28.908Z,5.5
2017-12-30T01:52:30.287Z,5.5
2017-12-30T01:53:31.669Z,5.6
2017-12-30T01:54:33.051Z,5.6
2017-12-30T01:55:34.431Z,5.6
2017-12-30T01:56:35.814Z,5.5
2017-12-30T01:57:37.201Z,5.6
2017-12-30T01:58:38.582Z,5.5
2017-12-30T01:59:39.960Z,5.6
2017-12-30T02:00:41.338Z,5.5
2017-12-30T02:01:42.719Z,5.5
2017-12-30T02:02:44.115Z,5.6
2017-12-30T02:03:45.495Z,5.5
2017-12-30T02:04:46.877Z,5.5
2017-12-30T02:05:48.256Z,5.5
2017-12-30T02:06:49.635Z,5.4
2017-12-30T02:07:51.016Z,5.6
2017-12-30T02:08:52.391Z,5.4
2017-12-30T02:09:53.777Z,5.6
2017-12-30T02:10:55.159Z,5.5
2017-12-30T02:11:56.541Z,5.6
2017-12-30T02:12:57.922Z,5.6
2017-12-30T02:13:59.300Z,5.6
2017-12-30T02:15:00.681Z,5.6
2017-12-30T02:16:02.061Z,5.6
2017-12-30T02:17:03.442Z,5.6
2017-12-30T02:18:04.828Z,5.6
2017-12-30T02:19:06.213Z,5.6
2017-12-30T02:20:07.592Z,5.6
2017-12-30T02:21:08.971Z,5.5
2017-12-30T02:22:10.349Z,5.5
2017-12-30T02:23:11.729Z,5.5
2017-12-30T02:24:13.111Z,5.5
2017-12-30T02:25:14.494Z,5.6
2017-12-30T02:26:15.878Z,5.6
2017-12-30T02:27:17.256Z,5.6
2017-12-30T02:28:18.634Z,5.6
2017-12-30T02:29:20.015Z,5.6
2017-12-30T02:30:21.422Z,5.6
2017-12-30T02:31:22.847Z,5.5
2017-12-30T02:32:24.234Z,5.6
2017-12-30T02:33:25.618Z,5.6
2017-12-30T02:34:26.996Z,5.6
2017-12-30T02:35:28.374Z,5.5
2017-12-30T02:36:29.755Z,5.6
2017-12-30T02:37:31.135Z,5.7
2017-12-30T02:38:32.524Z,5.7
2017-12-30T02:39:33.905Z,5.6
2017-12-30T02:40:35.287Z,5.6
2017-12-30T02:41:36.669Z,5.5
2017-12-30T02:42:38.053Z,5.6
2017-12-30T02:43:39.433Z,5.6
2017-12-30T02:44:40.814Z,5.6
2017-12-30T02:45:42.196Z,5.6
2017-12-30T02:46:43.575Z,5.6
2017-12-30T02:47:44.958Z,5.6
2017-12-30T02:48:46.337Z,5.6
2017-12-30T02:49:47.719Z,5.6
2017-12-30T02:50:49.102Z,5.6
2017-12-30T02:51:50.480Z,5.6
2017-12-30T02:52:51.869Z,5.6
2017-12-30T02:53:53.246Z,5.6
2017-12-30T02:54:54.629Z,5.7
2017-12-30T02:55:56.013Z,5.7
2017-12-30T02:56:57.392Z,5.7
2017-12-30T02:57:58.774Z,5.6
2017-12-30T02:59:00.155Z,5.6
2017-12-30T03:00:01.538Z,5.6
2017-12-30T03:01:02.919Z,5.5
2017-12-30T03:02:04.302Z,5.5
2017-12-30T03:03:05.682Z,5.5
2017-12-30T03:04:07.061Z,5.6
2017-12-30T03:05:08.441Z,5.6
2017-12-30T03:06:09.822Z,5.6
2017-12-30T03:07:11.203Z,5.6
2017-12-30T03:08:12.589Z,5.5
2017-12-30T03:09:13.970Z,5.5
2017-12-30T03:10:15.352Z,5.5
2017-12-30T03:11:16.730Z,5.5
2017-12-30T03:12:18.110Z,5.6
2017-12-30T03:13:19.493Z,5.5
2017-12-30T03:14:20.871Z,5.5
2017-12-30T03:15:22.250Z,5.6
2017-12-30T03:16:23.634Z,5.5
2017-12-30T03:17:25.015Z,5.5
2017-12-30T03:18:26.398Z,5.4
2017-12-30T03:19:27.779Z,5.5
2017-12-30T03:20:29.158Z,5.5
2017-12-30T03:21:30.541Z,5.5
2017-12-30T03:22:31.922Z,5.5
2017-12-30T03:23:33.303Z,5.5
2017-12-30T03:24:34.757Z,5.4
2017-12-30T03:25:36.153Z,5.5
2017-12-30T03:26:37.533Z,5.5
2017-12-30T03:27:38.914Z,5.4
2017-12-30T03:28:40.294Z,5.4
2017-12-30T03:29:41.675Z,5.3
2017-12-30T03:30:43.065Z,5.4
2017-12-30T03:31:44.441Z,5.4
2017-12-30T03:32:45.821Z,5.3
2017-12-30T03:33:47.205Z,5.4
2017-12-30T03:34:48.587Z,5.4
2017-12-30T03:35:49.970Z,5.4
2017-12-30T03:36:51.355Z,5.3
2017-12-30T03:37:52.737Z,5.3
2017-12-30T03:38:54.119Z,5.3
2017-12-30T03:39:55.499Z,5.3
2017-12-30T03:40:56.877Z,5.3
2017-12-30T03:41:58.256Z,5.3
2017-12-30T03:42:59.639Z,5.2
2017-12-30T03:44:01.022Z,5.2
2017-12-30T03:45:02.412Z,5.3
2017-12-30T03:46:03.784Z,5.2
2017-12-30T03:47:05.162Z,5.2
2017-12-30T03:48:06.540Z,5.2
2017-12-30T03:49:07.921Z,5.2
2017-12-30T03:50:09.305Z,5.2
2017-12-30T03:51:10.686Z,5.2
2017-12-30T03:52:12.067Z,5.1
2017-12-30T03:53:13.451Z,5.2
2017-12-30T03:54:14.829Z,5.2
2017-12-30T03:55:16.209Z,5.2
2017-12-30T03:56:17.590Z,5.2
2017-12-30T03:57:18.971Z,5.2
2017-12-30T03:58:20.354Z,5.2
2017-12-30T03:59:21.737Z,5.2
2017-12-30T04:00:23.120Z,5.2
2017-12-30T04:01:24.593Z,5.2
2017-12-30T04:02:25.978Z,5.2
2017-12-30T04:03:27.355Z,5.3
2017-12-30T04:04:28.739Z,5.3
2017-12-30T04:05:30.119Z,5.4
2017-12-30T04:06:31.500Z,5.3
2017-12-30T04:07:32.881Z,5.3
2017-12-30T04:08:34.265Z,5.4
2017-12-30T04:09:35.642Z,5.4
2017-12-30T04:10:37.023Z,5.4
2017-12-30T04:11:38.405Z,5.4
2017-12-30T04:12:39.792Z,5.4
2017-12-30T04:13:41.174Z,5.5
2017-12-30T04:14:42.557Z,5.4
2017-12-30T04:15:43.934Z,5.4
2017-12-30T04:16:45.315Z,5.5
2017-12-30T04:17:46.778Z,5.5
2017-12-30T04:18:48.171Z,5.5
2017-12-30T04:19:49.552Z,5.5
2017-12-30T04:20:50.936Z,5.5
2017-12-30T04:21:52.314Z,5.5
2017-12-30T04:22:53.692Z,5.6
2017-12-30T04:23:55.074Z,5.6
2017-12-30T04:24:56.455Z,5.6
2017-12-30T04:25:57.835Z,5.6
2017-12-30T04:26:59.216Z,5.6
2017-12-30T04:28:00.600Z,5.6
2017-12-30T04:29:01.980Z,5.5
2017-12-30T04:30:03.359Z,5.5
2017-12-30T04:31:04.741Z,5.6
2017-12-30T04:32:06.121Z,5.7
2017-12-30T04:33:07.500Z,5.7
2017-12-30T04:34:08.884Z,5.6
2017-12-30T04:35:10.270Z,5.7
2017-12-30T04:36:11.648Z,5.6
2017-12-30T04:37:13.029Z,5.6
2017-12-30T04:38:14.407Z,5.7
2017-12-30T04:39:15.786Z,5.7
2017-12-30T04:40:17.170Z,5.8
2017-12-30T04:41:18.552Z,5.8
2017-12-30T04:42:19.934Z,5.8
2017-12-30T04:43:21.312Z,5.8
2017-12-30T04:44:22.694Z,5.8
2017-12-30T04:45:24.077Z,5.8
2017-12-30T04:46:25.457Z,5.8
2017-12-30T04:47:26.837Z,5.8
2017-12-30T04:48:28.219Z,5.8
2017-12-30T04:49:29.606Z,5.9
2017-12-30T04:50:30.990Z,5.9
2017-12-30T04:51:32.371Z,5.9
2017-12-30T04:52:33.749Z,5.9
2017-12-30T04:53:35.132Z,5.9
2017-12-30T04:54:36.514Z,5.9
2017-12-30T04:55:37.896Z,5.9
2017-12-30T04:56:39.278Z,5.9
2017-12-30T04:57:40.659Z,6.0
2017-12-30T04:58:42.039Z,6.0
2017-12-30T04:59:43.421Z,6.0
2017-12-30T05:00:44.805Z,6.0
2017-12-30T05:01:46.191Z,6.0
2017-12-30T05:02:47.570Z,6.1
2017-12-30T05:03:48.950Z,6.1
2017-12-30T05:04:50.329Z,6.0
2017-12-30T05:05:51.710Z,6.0
2017-12-30T05:06:53.092Z,6.0
2017-12-30T05:07:54.471Z,6.1
2017-12-30T05:08:55.853Z,6.2
2017-12-30T05:09:57.237Z,6.1
2017-12-30T05:10:58.637Z,6.2
2017-12-30T05:12:00.026Z,6.2
2017-12-30T05:13:01.396Z,6.2
2017-12-30T05:14:02.778Z,6.2
2017-12-30T05:15:04.161Z,6.3
2017-12-30T05:16:05.542Z,6.2
2017-12-30T05:17:06.924Z,6.2
2017-12-30T05:18:08.309Z,6.3
2017-12-30T05:19:09.688Z,6.3
2017-12-30T05:20:11.069Z,6.2
2017-12-30T05:21:12.452Z,6.3
2017-12-30T05:22:13.835Z,6.3
2017-12-30T05:23:15.217Z,6.3
2017-12-30T05:24:16.599Z,6.3
2017-12-30T05:25:17.980Z,6.3
2017-12-30T05:26:19.362Z,6.3
2017-12-30T05:27:20.742Z,6.3
2017-12-30T05:28:22.123Z,6.4
2017-12-30T05:29:23.505Z,6.3
2017-12-30T05:30:24.886Z,6.3
2017-12-30T05:31:26.270Z,6.3
2017-12-30T05:32:27.652Z,6.3
2017-12-30T05:33:29.032Z,6.3
2017-12-30T05:34:30.411Z,6.3
2017-12-30T05:35:31.793Z,6.3
2017-12-30T05:36:33.183Z,6.3
2017-12-30T05:37:34.558Z,6.3
2017-12-30T05:38:35.943Z,6.3
2017-12-30T05:39:37.327Z,6.4
2017-12-30T05:40:38.705Z,6.4
2017-12-30T05:41:40.089Z,6.4
2017-12-30T05:42:41.473Z,6.4
2017-12-30T05:43:42.853Z,6.4
2017-12-30T05:44:44.233Z,6.3
2017-12-30T05:45:45.615Z,6.4
2017-12-30T05:46:47.000Z,6.4
2017-12-30T05:47:48.381Z,6.4
2017-12-30T05:48:49.762Z,6.4
2017-12-30T05:49:51.142Z,6.4
2017-12-30T05:50:52.525Z,6.5
2017-12-30T05:51:53.909Z,6.5
2017-12-30T05:52:55.290Z,6.5
2017-12-30T05:53:56.674Z,6.4
2017-12-30T05:54:58.058Z,6.5
2017-12-30T05:55:59.440Z,6.5
2017-12-30T05:57:00.820Z,6.5
2017-12-30T05:58:02.202Z,6.5
2017-12-30T05:59:03.585Z,6.4
2017-12-30T06:00:04.966Z,6.6
2017-12-30T06:01:06.351Z,6.5
2017-12-30T06:02:07.731Z,6.5
2017-12-30T06:03:09.113Z,6.5
2017-12-30T06:04:10.517Z,6.6
2017-12-30T06:05:11.920Z,6.6
2017-12-30T06:06:13.301Z,6.5
2017-12-30T06:07:14.686Z,6.5
2017-12-30T06:08:16.072Z,6.5
2017-12-30T06:09:17.450Z,6.4
2017-12-30T06:10:18.834Z,6.5
2017-12-30T06:11:20.215Z,6.5
2017-12-30T06:12:21.599Z,6.4
2017-12-30T06:13:22.980Z,6.5
2017-12-30T06:14:24.362Z,6.6
2017-12-30T06:15:25.748Z,6.5
2017-12-30T06:16:27.124Z,6.6
2017-12-30T06:17:28.505Z,6.5
2017-12-30T06:18:29.888Z,6.5
2017-12-30T06:19:31.273Z,6.5
2017-12-30T06:20:32.652Z,6.6
2017-12-30T06:21:34.035Z,6.6
2017-12-30T06:22:35.416Z,6.5
2017-12-30T06:23:36.797Z,6.3
2017-12-30T06:24:38.177Z,6.5
2017-12-30T06:25:39.561Z,6.5
2017-12-30T06:26:40.941Z,6.5
2017-12-30T06:27:42.324Z,6.5
2017-12-30T06:28:43.706Z,6.5
2017-12-30T06:29:45.091Z,6.5
2017-12-30T06:30:46.467Z,6.4
2017-12-30T06:31:47.852Z,6.4
2017-12-30T06:32:49.234Z,6.4
2017-12-30T06:33:50.614Z,6.4
2017-12-30T06:34:51.997Z,6.4
2017-12-30T06:35:53.380Z,6.4
2017-12-30T06:36:54.764Z,6.4
2017-12-30T06:37:56.143Z,6.4
2017-12-30T06:38:57.524Z,6.4
2017-12-30T06:39:58.904Z,6.4
2017-12-30T06:41:00.287Z,6.4
2017-12-30T06:42:01.668Z,6.4
2017-12-30T06:43:03.052Z,6.4
2017-12-30T06:44:04.436Z,6.4
2017-12-30T06:45:05.816Z,6.3
2017-12-30T06:46:07.198Z,6.4
2017-12-30T06:47:08.581Z,6.4
2017-12-30T06:48:09.962Z,6.5
2017-12-30T06:49:11.345Z,6.4
2017-12-30T06:50:12.727Z,6.5
2017-12-30T06:51:14.111Z,6.4
2017-12-30T06:52:15.491Z,6.5
2017-12-30T06:53:16.872Z,6.4
2017-12-30T06:54:18.251Z,6.4
2017-12-30T06:55:19.631Z,6.6
2017-12-30T06:56:21.011Z,6.5
2017-12-30T06:57:22.428Z,6.5
2017-12-30T06:58:23.850Z,6.6
2017-12-30T06:59:25.230Z,6.6
2017-12-30T07:00:26.609Z,6.5
2017-12-30T07:01:27.990Z,6.5
2017-12-30T07:02:29.371Z,6.5
2017-12-30T07:03:30.754Z,6.4
2017-12-30T07:04:32.136Z,6.5
2017-12-30T07:05:33.520Z,6.5
2017-12-30T07:06:34.901Z,6.4
2017-12-30T07:07:36.280Z,6.5
2017-12-30T07:08:37.663Z,6.5
2017-12-30T07:09:39.048Z,6.4
2017-12-30T07:10:40.432Z,6.4
2017-12-30T07:11:41.815Z,6.5
2017-12-30T07:12:43.199Z,6.5
2017-12-30T07:13:44.578Z,6.4
2017-12-30T07:14:45.959Z,6.4
2017-12-30T07:15:47.341Z,6.5
2017-12-30T07:16:48.725Z,6.4
2017-12-30T07:17:50.105Z,6.4
2017-12-30T07:18:51.489Z,6.4
2017-12-30T07:19:52.872Z,6.4
2017-12-30T07:20:54.252Z,6.4
2017-12-30T07:21:55.632Z,6.5
2017-12-30T07:22:57.015Z,6.4
2017-12-30T07:23:58.430Z,6.4
2017-12-30T07:24:59.775Z,6.5
2017-12-30T07:26:01.157Z,6.4
2017-12-30T07:27:02.540Z,6.5
2017-12-30T07:28:03.921Z,6.4
2017-12-30T07:29:05.303Z,6.4
2017-12-30T07:30:06.683Z,6.4
2017-12-30T07:31:08.065Z,6.4
2017-12-30T07:32:09.452Z,6.4
2017-12-30T07:33:10.831Z,6.5
2017-12-30T07:34:12.219Z,6.4
2017-12-30T07:35:13.601Z,6.4
2017-12-30T07:36:14.981Z,6.4
2017-12-30T07:37:16.364Z,6.4
2017-12-30T07:38:17.749Z,6.4
2017-12-30T07:39:19.134Z,6.4
2017-12-30T07:40:20.513Z,6.4
2017-12-30T07:41:21.898Z,6.5
2017-12-30T07:42:23.310Z,6.4
2017-12-30T07:43:24.692Z,6.5
2017-12-30T07:44:26.073Z,6.5
2017-12-30T07:45:27.455Z,6.4
2017-12-30T07:46:28.846Z,6.5
2017-12-30T07:47:30.226Z,6.5
2017-12-30T07:48:31.610Z,6.5
2017-12-30T07:49:32.991Z,6.6
2017-12-30T07:50:34.452Z,6.5
2017-12-30T07:51:35.864Z,6.5
2017-12-30T07:52:37.246Z,6.5
2017-12-30T07:53:38.631Z,6.5
2017-12-30T07:54:40.017Z,6.5
2017-12-30T07:55:41.401Z,6.5
2017-12-30T07:56:42.785Z,6.5
2017-12-30T07:57:44.165Z,6.6
2017-12-30T07:58:45.549Z,6.6
2017-12-30T07:59:46.930Z,6.6
2017-12-30T08:00:48.312Z,6.5
2017-12-30T08:01:49.701Z,6.6
2017-12-30T08:02:51.086Z,6.6
2017-12-30T08:03:52.518Z,6.6
2017-12-30T08:04:53.853Z,6.6
2017-12-30T08:05:55.238Z,6.5
2017-12-30T08:06:56.627Z,6.5
2017-12-30T08:07:58.007Z,6.6
2017-12-30T08:08:59.391Z,6.6
2017-12-30T08:10:00.778Z,6.6
2017-12-30T08:11:02.163Z,6.7
2017-12-30T08:12:03.544Z,6.7
2017-12-30T08:13:04.928Z,6.7
2017-12-30T08:14:06.314Z,6.7
2017-12-30T08:15:07.699Z,6.7
2017-12-30T08:16:09.083Z,6.7
2017-12-30T08:17:10.473Z,6.8
2017-12-30T08:18:11.855Z,6.8
2017-12-30T08:19:13.240Z,6.8
2017-12-30T08:20:14.626Z,6.8
2017-12-30T08:21:16.011Z,6.8
2017-12-30T08:22:17.397Z,6.9
2017-12-30T08:23:18.781Z,6.9
2017-12-30T08:24:20.171Z,7.1
2017-12-30T08:25:21.553Z,7.1
2017-12-30T08:26:22.937Z,7.1
2017-12-30T08:27:24.323Z,7.1
2017-12-30T08:28:25.708Z,7.2
2017-12-30T08:29:27.094Z,7.2
2017-12-30T08:30:28.481Z,7.3
2017-12-30T08:31:29.867Z,7.3
2017-12-30T08:32:31.250Z,7.3
2017-12-30T08:33:32.636Z,7.4
2017-12-30T08:34:34.025Z,7.4
2017-12-30T08:35:35.406Z,7.4
2017-12-30T08:36:36.797Z,7.5
2017-12-30T08:37:38.179Z,7.5
2017-12-30T08:38:39.566Z,7.6
2017-12-30T08:39:40.949Z,7.6
2017-12-30T08:40:42.333Z,7.7
2017-12-30T08:41:43.719Z,7.7
2017-12-30T08:42:45.131Z,7.8
2017-12-30T08:43:46.544Z,7.8
2017-12-30T08:44:47.932Z,7.8
2017-12-30T08:45:49.323Z,7.9
2017-12-30T08:46:50.711Z,7.9
2017-12-30T08:47:52.087Z,7.9
2017-12-30T08:48:53.470Z,7.9
2017-12-30T08:49:54.855Z,7.9
2017-12-30T08:50:56.242Z,7.8
2017-12-30T08:51:57.626Z,7.8
2017-12-30T08:52:59.010Z,7.9
2017-12-30T08:54:00.393Z,8.0
2017-12-30T08:55:01.778Z,8.0
2017-12-30T08:56:03.160Z,8.0
2017-12-30T08:57:04.544Z,8.1
2017-12-30T08:58:05.934Z,8.1
2017-12-30T08:59:07.320Z,8.2
2017-12-30T09:00:08.706Z,8.2
2017-12-30T09:01:10.090Z,8.2
2017-12-30T09:02:11.474Z,8.2
2017-12-30T09:03:12.860Z,8.3
2017-12-30T09:04:14.248Z,8.4
2017-12-30T09:05:15.633Z,8.3
2017-12-30T09:06:17.021Z,8.4
2017-12-30T09:07:18.410Z,8.4
2017-12-30T09:08:19.798Z,8.4
2017-12-30T09:09:21.182Z,8.5
2017-12-30T09:10:22.568Z,8.6
2017-12-30T09:11:23.956Z,8.7
2017-12-30T09:12:25.340Z,8.6
2017-12-30T09:13:26.727Z,8.8
2017-12-30T09:14:28.117Z,8.8
2017-12-30T09:15:29.503Z,8.8
2017-12-30T09:16:30.888Z,9.0
2017-12-30T09:17:32.275Z,9.0
2017-12-30T09:18:33.660Z,9.0
2017-12-30T09:19:35.046Z,9.0
2017-12-30T09:20:36.442Z,9.1
2017-12-30T09:21:37.824Z,9.2
2017-12-30T09:22:39.209Z,9.2
2017-12-30T09:23:40.595Z,9.3
2017-12-30T09:24:41.983Z,9.3
2017-12-30T09:25:43.370Z,9.4
2017-12-30T09:26:44.758Z,9.4
2017-12-30T09:27:46.146Z,9.4
2017-12-30T09:28:47.537Z,9.6
2017-12-30T09:29:48.924Z,9.6
2017-12-30T09:30:50.308Z,9.7
2017-12-30T09:31:51.696Z,9.7
2017-12-30T09:32:53.089Z,9.8
2017-12-30T09:33:54.478Z,9.9
2017-12-30T09:34:55.863Z,9.8
2017-12-30T09:35:57.316Z,9.8
2017-12-30T09:36:58.711Z,9.8
2017-12-30T09:38:00.098Z,9.8
2017-12-30T09:39:01.486Z,9.8
2017-12-30T09:40:02.875Z,9.8
2017-12-30T09:41:04.261Z,9.8
2017-12-30T09:42:05.651Z,9.8
2017-12-30T09:43:07.050Z,9.8
2017-12-30T09:44:08.422Z,9.8
2017-12-30T09:45:09.811Z,9.8
2017-12-30T09:46:11.196Z,9.9
2017-12-30T09:47:12.587Z,9.8
2017-12-30T09:48:13.975Z,9.8
2017-12-30T09:49:15.362Z,9.8
2017-12-30T09:50:16.750Z,9.9
2017-12-30T09:51:18.137Z,9.8
2017-12-30T09:52:19.524Z,9.9
2017-12-30T09:53:20.911Z,9.9
2017-12-30T09:54:22.296Z,10.0
2017-12-30T09:55:23.687Z,10.0
2017-12-30T09:56:25.078Z,10.2
2017-12-30T09:57:26.470Z,10.1
2017-12-30T09:58:27.858Z,10.2
2017-12-30T09:59:29.249Z,10.2
2017-12-30T10:00:30.634Z,10.2
2017-12-30T10:01:32.022Z,10.2
2017-12-30T10:02:33.419Z,10.4
2017-12-30T10:03:34.806Z,10.4
2017-12-30T10:04:36.196Z,10.5
2017-12-30T10:05:37.586Z,10.5
2017-12-30T10:06:38.976Z,10.5
2017-12-30T10:07:40.364Z,10.6
2017-12-30T10:08:41.757Z,10.8
2017-12-30T10:09:43.145Z,10.9
2017-12-30T10:10:44.541Z,11.0
2017-12-30T10:11:45.928Z,11.0
2017-12-30T10:12:47.317Z,10.9
2017-12-30T10:13:48.718Z,11.0
2017-12-30T10:14:50.109Z,11.0
2017-12-30T10:15:51.498Z,11.1
2017-12-30T10:16:52.889Z,11.1
2017-12-30T10:17:54.277Z,11.1
2017-12-30T10:18:55.669Z,11.2
2017-12-30T10:19:57.058Z,11.2
2017-12-30T10:20:58.448Z,11.3
2017-12-30T10:21:59.839Z,11.2
2017-12-30T10:23:01.227Z,11.3
2017-12-30T10:24:02.618Z,11.3
2017-12-30T10:25:04.006Z,11.3
2017-12-30T10:26:05.398Z,11.4
2017-12-30T10:27:06.791Z,11.4
2017-12-30T10:28:08.191Z,11.4
2017-12-30T10:29:09.582Z,11.4
2017-12-30T10:30:10.972Z,11.5
2017-12-30T10:31:12.360Z,11.5
2017-12-30T10:32:13.759Z,11.5
2017-12-30T10:33:15.143Z,11.5
2017-12-30T10:34:16.530Z,11.5
2017-12-30T10:35:17.922Z,11.5
2017-12-30T10:36:19.312Z,11.6
2017-12-30T10:37:20.703Z,11.7
2017-12-30T10:38:22.092Z,11.7
2017-12-30T10:39:23.482Z,11.6
2017-12-30T10:40:24.871Z,11.7
2017-12-30T10:41:26.264Z,11.7
2017-12-30T10:42:27.649Z,11.8
2017-12-30T10:43:29.040Z,11.8
2017-12-30T10:44:30.428Z,11.9
2017-12-30T10:45:31.818Z,12.0
2017-12-30T10:46:33.207Z,11.9
2017-12-30T10:47:34.602Z,11.9
2017-12-30T10:48:35.992Z,12.0
2017-12-30T10:49:37.382Z,12.0
2017-12-30T10:50:38.769Z,12.0
2017-12-30T10:51:40.159Z,12.0
2017-12-30T10:52:41.550Z,12.0
2017-12-30T10:53:42.940Z,12.1
2017-12-30T10:54:44.335Z,12.1
2017-12-30T10:55:45.725Z,12.1
2017-12-30T10:56:47.114Z,12.1
2017-12-30T10:57:48.579Z,12.1
2017-12-30T10:58:49.971Z,12.1
2017-12-30T10:59:51.361Z,12.2
2017-12-30T11:00:52.752Z,12.1
2017-12-30T11:01:54.147Z,12.1
2017-12-30T11:02:55.538Z,12.3
2017-12-30T11:03:56.924Z,12.3
2017-12-30T11:04:58.313Z,12.3
2017-12-30T11:05:59.699Z,12.4
2017-12-30T11:07:01.090Z,12.4
2017-12-30T11:08:02.484Z,12.4
2017-12-30T11:09:03.878Z,12.3
2017-12-30T11:10:05.264Z,12.4
2017-12-30T11:11:06.651Z,12.4
2017-12-30T11:12:08.040Z,12.5
2017-12-30T11:13:09.429Z,12.5
2017-12-30T11:14:10.821Z,12.5
2017-12-30T11:15:12.213Z,12.5
2017-12-30T11:16:13.604Z,12.5
2017-12-30T11:17:14.995Z,12.5
2017-12-30T11:18:16.385Z,12.5
2017-12-30T11:19:17.773Z,12.5
2017-12-30T11:20:19.179Z,12.5
2017-12-30T11:21:20.575Z,12.5
2017-12-30T11:22:21.967Z,12.6
2017-12-30T11:23:23.360Z,12.6
2017-12-30T11:24:24.750Z,12.6
2017-12-30T11:25:26.137Z,12.6
2017-12-30T11:26:27.528Z,12.5
2017-12-30T11:27:28.917Z,12.6
2017-12-30T11:28:30.308Z,12.5
2017-12-30T11:29:31.700Z,12.7
2017-12-30T11:30:33.095Z,12.6
2017-12-30T11:31:34.483Z,12.5
2017-12-30T11:32:35.872Z,12.6
2017-12-30T11:33:37.263Z,12.8
2017-12-30T11:34:38.653Z,12.7
2017-12-30T11:35:40.044Z,12.7
2017-12-30T11:36:41.435Z,12.7
2017-12-30T11:37:42.831Z,12.7
2017-12-30T11:38:44.238Z,12.8
2017-12-30T11:39:45.708Z,12.8
2017-12-30T11:40:47.105Z,12.8
2017-12-30T11:41:48.498Z,12.8
2017-12-30T11:42:49.886Z,12.8
2017-12-30T11:43:51.279Z,12.8
2017-12-30T11:44:52.672Z,12.8
2017-12-30T11:45:54.063Z,12.9
2017-12-30T11:46:55.453Z,12.9
2017-12-30T11:47:56.841Z,12.9
2017-12-30T11:48:58.234Z,12.9
2017-12-30T11:49:59.623Z,12.9
2017-12-30T11:51:01.015Z,12.9
2017-12-30T11:52:02.408Z,13.0
2017-12-30T11:53:03.809Z,13.0
2017-12-30T11:54:05.201Z,12.9
2017-12-30T11:55:06.587Z,13.0
2017-12-30T11:56:07.978Z,13.0
2017-12-30T11:57:09.370Z,13.2
2017-12-30T11:58:10.763Z,13.1
2017-12-30T11:59:12.155Z,13.2
2017-12-30T12:00:13.546Z,13.2
2017-12-30T12:01:14.933Z,13.2
2017-12-30T12:02:16.325Z,13.1
2017-12-30T12:03:17.725Z,13.1
2017-12-30T12:04:19.115Z,13.2
2017-12-30T12:05:20.553Z,13.2
2017-12-30T12:06:21.943Z,13.2
2017-12-30T12:07:23.284Z,13.3
2017-12-30T12:08:24.672Z,13.3
2017-12-30T12:09:26.062Z,13.3
2017-12-30T12:10:27.456Z,13.2
2017-12-30T12:11:28.848Z,13.3
2017-12-30T12:12:30.263Z,13.3
2017-12-30T12:13:31.673Z,13.3
2017-12-30T12:14:33.061Z,13.3
2017-12-30T12:15:34.450Z,13.4
2017-12-30T12:16:35.844Z,13.5
2017-12-30T12:17:37.232Z,13.5
2017-12-30T12:18:38.650Z,13.4
2017-12-30T12:19:40.028Z,13.4
2017-12-30T12:20:41.424Z,13.4
2017-12-30T12:21:42.812Z,13.5
2017-12-30T12:22:44.202Z,13.4
2017-12-30T12:23:45.594Z,13.5
2017-12-30T12:24:46.985Z,13.6
2017-12-30T12:25:48.376Z,13.6
2017-12-30T12:26:49.771Z,13.5
2017-12-30T12:27:51.163Z,13.6
2017-12-30T12:28:52.551Z,13.7
2017-12-30T12:29:53.942Z,13.7
2017-12-30T12:30:55.336Z,13.7
2017-12-30T12:31:56.727Z,13.7
2017-12-30T12:32:58.118Z,13.8
2017-12-30T12:33:59.511Z,13.7
2017-12-30T12:35:00.905Z,13.7
2017-12-30T12:36:02.293Z,13.7
2017-12-30T12:37:03.683Z,13.8
2017-12-30T12:38:05.076Z,13.7
2017-12-30T12:39:06.464Z,13.7
2017-12-30T12:40:07.856Z,13.7
2017-12-30T12:41:09.248Z,13.7
2017-12-30T12:42:10.642Z,13.7
2017-12-30T12:43:12.033Z,13.7
2017-12-30T12:44:13.425Z,13.7
2017-12-30T12:45:14.816Z,13.7
2017-12-30T12:46:16.209Z,13.7
2017-12-30T12:47:17.600Z,13.7
2017-12-30T12:48:18.996Z,13.8
2017-12-30T12:49:20.390Z,13.7
2017-12-30T12:50:21.782Z,13.8
2017-12-30T12:51:23.172Z,13.7
2017-12-30T12:52:24.562Z,13.8
2017-12-30T12:53:25.956Z,13.8
2017-12-30T12:54:27.347Z,13.9
2017-12-30T12:55:28.743Z,13.9
2017-12-30T12:56:30.138Z,13.8
2017-12-30T12:57:31.529Z,13.8
2017-12-30T12:58:32.923Z,13.9
2017-12-30T12:59:34.317Z,13.9
2017-12-30T13:00:35.704Z,13.9
2017-12-30T13:01:37.097Z,13.8
2017-12-30T13:02:38.500Z,13.9
2017-12-30T13:03:39.891Z,13.9
2017-12-30T13:04:41.367Z,13.8
2017-12-30T13:05:42.759Z,13.9
2017-12-30T13:06:44.151Z,13.9
2017-12-30T13:07:45.542Z,13.9
2017-12-30T13:08:46.934Z,13.8
2017-12-30T13:09:48.328Z,13.9
2017-12-30T13:10:49.721Z,13.8
2017-12-30T13:11:51.114Z,13.8
2017-12-30T13:12:52.505Z,13.8
2017-12-30T13:13:53.893Z,13.9
2017-12-30T13:14:55.285Z,13.9
2017-12-30T13:15:56.675Z,13.9
2017-12-30T13:16:58.069Z,13.8
2017-12-30T13:17:59.462Z,13.8
2017-12-30T13:19:00.851Z,13.8
2017-12-30T13:20:02.243Z,13.7
2017-12-30T13:21:03.636Z,13.7
2017-12-30T13:22:05.025Z,13.8
2017-12-30T13:23:06.416Z,13.7
2017-12-30T13:24:07.810Z,13.7
2017-12-30T13:25:09.202Z,13.7
2017-12-30T13:26:10.596Z,13.6
2017-12-30T13:27:11.987Z,13.7
2017-12-30T13:28:13.379Z,13.7
2017-12-30T13:29:14.768Z,13.7
2017-12-30T13:30:16.162Z,13.7
2017-12-30T13:31:17.553Z,13.8
2017-12-30T13:32:18.946Z,13.9
2017-12-30T13:33:20.337Z,13.8
2017-12-30T13:34:21.730Z,13.8
2017-12-30T13:35:23.123Z,13.8
2017-12-30T13:36:24.514Z,13.8
2017-12-30T13:37:25.905Z,13.8
2017-12-30T13:38:27.298Z,13.8
2017-12-30T13:39:28.690Z,13.8
2017-12-30T13:40:30.083Z,13.8
2017-12-30T13:41:31.473Z,13.8
2017-12-30T13:42:32.861Z,13.8
2017-12-30T13:43:34.256Z,13.8
2017-12-30T13:44:35.646Z,13.8
2017-12-30T13:45:37.037Z,13.7
2017-12-30T13:46:38.428Z,13.8
2017-12-30T13:47:39.820Z,13.8
2017-12-30T13:48:41.210Z,13.7
2017-12-30T13:49:42.604Z,13.8
2017-12-30T13:50:43.997Z,13.8
2017-12-30T13:51:45.388Z,13.8
2017-12-30T13:52:46.781Z,13.8
2017-12-30T13:53:48.177Z,13.7
2017-12-30T13:54:49.571Z,13.8
2017-12-30T13:55:50.979Z,13.8
2017-12-30T13:56:52.374Z,13.7